Terminal Aerodrome Forecast
Issued by NWS

Home | Current Version | Previous Version | Text Only | Print | Product List | Glossary On
Versions: 1 2 3 4 5 6 7 8 9 10 11 12 13 14 15 16
000
FTUS43 KDLH 210159 AAA
TAFHIB
TAF AMD
KHIB 210159Z 2102/2124 16012KT P6SM BKN200 WS020/18040KT
     FM210600 17009KT P6SM BKN150
     FM211000 16009KT P6SM VCSH BKN070 OVC150
     FM211200 17009KT P6SM VCSH OVC025
     FM211600 16011G17KT P6SM VCSH OVC015
     FM211800 17011G18KT 6SM -SHRA OVC012=

USA.gov is the U.S. government's official web portal to all federal, state and local government web resources and services.